createdAt,value
2023-09-23T00:02:21.284Z,97044.25
2023-09-23T00:04:47.819Z,97039.09
2023-09-23T00:07:14.543Z,97046.44
2023-09-23T00:09:40.841Z,97038.78
2023-09-23T00:12:07.146Z,97044.59
2023-09-23T00:14:33.479Z,97061.03
2023-09-23T00:16:59.794Z,97046.56
2023-09-23T00:19:26.155Z,97036.44
2023-09-23T00:21:52.645Z,97043.41
2023-09-23T00:24:18.966Z,97035.28
2023-09-23T00:26:45.342Z,97047.59
2023-09-23T00:29:11.665Z,97041.66
2023-09-23T00:31:38.107Z,97040.28
2023-09-23T00:34:04.462Z,97035.16
2023-09-23T00:36:30.813Z,97041.81
2023-09-23T00:38:57.102Z,97046.81
2023-09-23T00:41:23.438Z,97047.53
2023-09-23T00:43:49.992Z,97042.16
2023-09-23T00:46:16.390Z,97039.56
2023-09-23T00:48:43.135Z,97046.78
2023-09-23T00:51:09.533Z,97041.09
2023-09-23T00:53:35.905Z,97046.78
2023-09-23T00:56:02.356Z,97052.84
2023-09-23T00:58:28.743Z,97052.09
2023-09-23T01:00:55.031Z,97064.63
2023-09-23T01:03:21.604Z,97067.31
2023-09-23T01:05:48.044Z,97063.81
2023-09-23T01:08:14.454Z,97064.28
2023-09-23T01:10:41.209Z,97070.31
2023-09-23T01:13:07.825Z,97071.88
2023-09-23T01:15:34.257Z,97078.66
2023-09-23T01:18:00.771Z,97079.81
2023-09-23T01:20:27.176Z,97087.59
2023-09-23T01:22:53.607Z,97086.09
2023-09-23T01:25:20.109Z,97091.16
2023-09-23T01:27:46.483Z,97088.06
2023-09-23T01:30:12.876Z,97092.03
2023-09-23T01:32:41.805Z,97086.56
2023-09-23T01:35:08.446Z,97093.84
2023-09-23T01:37:34.792Z,97092.56
2023-09-23T01:40:01.190Z,97097.47
2023-09-23T01:42:27.546Z,97106.44
2023-09-23T01:44:53.842Z,97099.00
2023-09-23T01:47:20.265Z,97103.88
2023-09-23T01:49:46.651Z,97104.00
2023-09-23T01:52:12.973Z,97110.56
2023-09-23T01:54:39.312Z,97110.53
2023-09-23T01:57:05.673Z,97107.75
2023-09-23T01:59:31.940Z,97113.44
2023-09-23T02:01:58.332Z,97119.47
2023-09-23T02:04:24.950Z,97127.78
2023-09-23T02:06:51.336Z,97121.50
2023-09-23T02:09:17.700Z,97123.56
2023-09-23T02:11:44.082Z,97117.50
2023-09-23T02:14:10.447Z,97134.69
2023-09-23T02:16:36.982Z,97140.47
2023-09-23T02:19:03.696Z,97140.00
2023-09-23T02:21:30.013Z,97146.00
2023-09-23T02:23:56.318Z,97141.63
2023-09-23T02:26:22.651Z,97134.34
2023-09-23T02:28:49.170Z,97128.69
2023-09-23T02:31:15.654Z,97139.16
2023-09-23T02:33:42.053Z,97144.13
2023-09-23T02:36:08.353Z,97146.78
2023-09-23T02:38:34.774Z,97151.97
2023-09-23T02:41:01.214Z,97151.72
2023-09-23T02:43:27.527Z,97141.16
2023-09-23T02:45:53.835Z,97141.63
2023-09-23T02:48:20.352Z,97148.03
2023-09-23T02:50:46.725Z,97150.31
2023-09-23T02:53:13.078Z,97154.81
2023-09-23T02:55:39.556Z,97156.13
2023-09-23T02:58:05.866Z,97157.72
2023-09-23T03:00:32.191Z,97160.22
2023-09-23T03:02:58.728Z,97158.22
2023-09-23T03:05:25.270Z,97160.50
2023-09-23T03:07:51.710Z,97163.75
2023-09-23T03:10:18.159Z,97166.53
2023-09-23T03:12:44.441Z,97174.13
2023-09-23T03:15:10.763Z,97175.41
2023-09-23T03:17:37.342Z,97172.44
2023-09-23T03:20:03.716Z,97174.97
2023-09-23T03:22:30.070Z,97168.06
2023-09-23T03:24:56.430Z,97178.06
2023-09-23T03:27:22.740Z,97181.63
2023-09-23T03:29:49.061Z,97175.31
2023-09-23T03:32:15.631Z,97182.50
2023-09-23T03:34:42.136Z,97176.81
2023-09-23T03:37:11.052Z,97186.44
2023-09-23T03:39:38.523Z,97180.94
2023-09-23T03:42:04.904Z,97188.09
2023-09-23T03:44:31.246Z,97187.75
2023-09-23T03:46:57.629Z,97186.91
2023-09-23T03:49:23.958Z,97190.72
2023-09-23T03:51:50.263Z,97189.81
2023-09-23T03:54:16.636Z,97187.75
2023-09-23T03:56:42.953Z,97192.19
2023-09-23T03:59:09.286Z,97198.34
2023-09-23T04:01:35.680Z,97201.06
2023-09-23T04:04:02.136Z,97203.38
2023-09-23T04:06:28.570Z,97202.50
2023-09-23T04:09:14.876Z,97198.03
2023-09-23T04:11:41.260Z,97201.47
2023-09-23T04:14:27.799Z,97201.25
2023-09-23T04:16:54.185Z,97201.25
2023-09-23T04:19:20.488Z,97202.63
2023-09-23T04:21:47.012Z,97203.78
2023-09-23T04:24:13.336Z,97204.69
2023-09-23T04:26:39.637Z,97206.19
2023-09-23T04:29:13.222Z,97200.88
2023-09-23T04:31:39.619Z,97207.75
2023-09-23T04:34:05.954Z,97214.19
2023-09-23T04:36:32.327Z,97212.53
2023-09-23T04:38:58.639Z,97207.84
2023-09-23T04:41:24.957Z,97204.19
2023-09-23T04:43:51.341Z,97206.47
2023-09-23T04:46:17.839Z,97214.03
2023-09-23T04:48:44.314Z,97206.34
2023-09-23T04:51:11.120Z,97205.88
2023-09-23T04:53:37.478Z,97216.28
2023-09-23T04:56:03.811Z,97215.03
2023-09-23T04:58:30.290Z,97215.84
2023-09-23T05:00:56.601Z,97221.97
2023-09-23T05:03:22.913Z,97223.59
2023-09-23T05:05:49.355Z,97231.22
2023-09-23T05:08:15.838Z,97230.88
2023-09-23T05:10:42.163Z,97223.28
2023-09-23T05:13:08.487Z,97234.47
2023-09-23T05:15:34.811Z,97227.75
2023-09-23T05:18:01.216Z,97238.41
2023-09-23T05:20:27.673Z,97238.25
2023-09-23T05:22:54.077Z,97247.53
2023-09-23T05:25:20.435Z,97247.88
2023-09-23T05:27:46.773Z,97246.66
2023-09-23T05:30:13.486Z,97245.53
2023-09-23T05:32:39.890Z,97247.69
2023-09-23T05:35:06.387Z,97251.56
2023-09-23T05:37:32.835Z,97251.78
2023-09-23T05:39:59.249Z,97246.63
2023-09-23T05:42:25.722Z,97255.72
2023-09-23T05:44:52.044Z,97259.81
2023-09-23T05:47:18.437Z,97267.97
2023-09-23T05:49:46.608Z,97272.19
2023-09-23T05:52:14.134Z,97269.63
2023-09-23T05:54:40.444Z,97276.63
2023-09-23T05:57:07.020Z,97286.69
2023-09-23T05:59:33.343Z,97292.47
2023-09-23T06:01:59.676Z,97296.03
2023-09-23T06:04:26.204Z,97300.06
2023-09-23T06:06:52.556Z,97303.56
2023-09-23T06:09:18.895Z,97313.91
2023-09-23T06:11:45.230Z,97309.28
2023-09-23T06:14:11.653Z,97310.66
2023-09-23T06:16:38.097Z,97316.28
2023-09-23T06:19:04.417Z,97320.13
2023-09-23T06:21:30.812Z,97318.00
2023-09-23T06:23:57.102Z,97318.19
2023-09-23T06:26:23.659Z,97319.19
2023-09-23T06:28:50.068Z,97322.66
2023-09-23T06:31:16.487Z,97315.31
2023-09-23T06:33:43.392Z,97323.22
2023-09-23T06:36:09.737Z,97322.47
2023-09-23T06:38:36.075Z,97320.81
2023-09-23T06:41:02.763Z,97326.69
2023-09-23T06:43:29.081Z,97336.19
2023-09-23T06:45:55.376Z,97332.63
2023-09-23T06:48:21.768Z,97322.59
2023-09-23T06:50:48.119Z,97330.97
2023-09-23T06:53:14.562Z,97329.94
2023-09-23T06:55:40.901Z,97328.28
2023-09-23T06:58:07.208Z,97334.72
2023-09-23T07:00:33.518Z,97336.97
2023-09-23T07:02:59.920Z,97341.78
2023-09-23T07:05:28.762Z,97349.31
2023-09-23T07:07:55.148Z,97346.78
2023-09-23T07:10:21.483Z,97344.25
2023-09-23T07:12:47.865Z,97354.56
2023-09-23T07:15:14.155Z,97351.50
2023-09-23T07:17:40.641Z,97357.53
2023-09-23T07:20:07.051Z,97362.47
2023-09-23T07:22:33.366Z,97361.28
2023-09-23T07:24:59.809Z,97362.00
2023-09-23T07:27:26.180Z,97367.44
2023-09-23T07:29:52.467Z,97369.53
2023-09-23T07:32:18.940Z,97373.31
2023-09-23T07:34:45.285Z,97376.34
2023-09-23T07:37:11.563Z,97379.53
2023-09-23T07:39:37.883Z,97388.47
2023-09-23T07:42:05.209Z,97380.13
2023-09-23T07:44:31.538Z,97387.53
2023-09-23T07:46:57.978Z,97379.69
2023-09-23T07:49:24.317Z,97395.72
2023-09-23T07:51:50.637Z,97392.75
2023-09-23T07:54:17.148Z,97399.16
2023-09-23T07:56:43.565Z,97407.75
2023-09-23T07:59:09.949Z,97411.53
2023-09-23T08:01:36.275Z,97410.19
2023-09-23T08:04:02.731Z,97408.72
2023-09-23T08:06:29.031Z,97412.25
2023-09-23T08:08:55.373Z,97416.22
2023-09-23T08:11:21.735Z,97418.69
2023-09-23T08:13:48.330Z,97413.84
2023-09-23T08:16:14.886Z,97427.34
2023-09-23T08:18:41.284Z,97425.19
2023-09-23T08:21:07.587Z,97434.34
2023-09-23T08:23:33.962Z,97427.63
2023-09-23T08:26:00.329Z,97435.81
2023-09-23T08:28:26.736Z,97435.44
2023-09-23T08:30:53.119Z,97437.06
2023-09-23T08:33:19.517Z,97437.06
2023-09-23T08:35:45.907Z,97444.53
2023-09-23T08:38:12.268Z,97442.91
2023-09-23T08:40:38.570Z,97447.56
2023-09-23T08:43:04.898Z,97447.41
2023-09-23T08:45:31.360Z,97450.09
2023-09-23T08:47:57.782Z,97454.88
2023-09-23T08:50:24.185Z,97454.28
2023-09-23T08:52:50.595Z,97450.63
2023-09-23T08:55:16.907Z,97446.97
2023-09-23T08:57:43.233Z,97446.59
2023-09-23T09:00:09.694Z,97449.59
2023-09-23T09:02:36.093Z,97459.78
2023-09-23T09:05:02.713Z,97452.34
2023-09-23T09:07:29.139Z,97455.00
2023-09-23T09:09:55.624Z,97449.13
2023-09-23T09:12:22.462Z,97457.84
2023-09-23T09:14:48.807Z,97454.25
2023-09-23T09:17:15.173Z,97459.03
2023-09-23T09:19:41.468Z,97458.75
2023-09-23T09:22:07.778Z,97454.34
2023-09-23T09:24:34.124Z,97453.16
2023-09-23T09:27:00.448Z,97456.22
2023-09-23T09:29:26.799Z,97461.59
2023-09-23T09:31:53.282Z,97461.88
2023-09-23T09:34:19.625Z,97464.25
2023-09-23T09:36:45.965Z,97474.59
2023-09-23T09:39:12.294Z,97478.75
2023-09-23T09:41:38.582Z,97473.91
2023-09-23T09:44:05.030Z,97470.28
2023-09-23T09:46:31.386Z,97470.50
2023-09-23T09:48:57.709Z,97461.84
2023-09-23T09:51:24.047Z,97467.28
2023-09-23T09:53:50.424Z,97464.91
2023-09-23T09:56:17.903Z,97472.44
2023-09-23T09:58:45.646Z,97457.41
2023-09-23T10:01:12.146Z,97459.72
2023-09-23T10:03:38.648Z,97465.13
2023-09-23T10:06:05.071Z,97461.38
2023-09-23T10:08:31.388Z,97458.31
2023-09-23T10:10:57.667Z,97453.53
2023-09-23T10:13:24.017Z,97461.13
2023-09-23T10:15:50.348Z,97464.84
2023-09-23T10:18:16.764Z,97467.97
2023-09-23T10:20:43.361Z,97466.63
2023-09-23T10:23:09.769Z,97469.59
2023-09-23T10:25:36.075Z,97457.09
2023-09-23T10:28:02.428Z,97469.66
2023-09-23T10:30:28.759Z,97466.31
2023-09-23T10:32:55.049Z,97464.84
2023-09-23T10:35:21.630Z,97464.25
2023-09-23T10:37:47.992Z,97463.06
2023-09-23T10:40:14.359Z,97453.53
2023-09-23T10:42:40.999Z,97458.66
2023-09-23T10:45:07.380Z,97461.72
2023-09-23T10:47:33.744Z,97469.47
2023-09-23T10:50:00.427Z,97470.38
2023-09-23T10:52:26.791Z,97472.00
2023-09-23T10:54:53.085Z,97475.72
2023-09-23T10:57:19.972Z,97474.00
2023-09-23T10:59:46.333Z,97473.34
2023-09-23T11:02:12.759Z,97465.59
2023-09-23T11:04:39.260Z,97467.75
2023-09-23T11:07:05.824Z,97470.97
2023-09-23T11:09:32.141Z,97472.50
2023-09-23T11:11:58.645Z,97465.97
2023-09-23T11:14:25.003Z,97475.72
2023-09-23T11:16:51.271Z,97469.75
2023-09-23T11:19:17.605Z,97480.03
2023-09-23T11:21:43.946Z,97466.78
2023-09-23T11:24:10.541Z,97468.25
2023-09-23T11:26:37.118Z,97465.88
2023-09-23T11:29:03.519Z,97470.28
2023-09-23T11:31:29.920Z,97467.59
2023-09-23T11:33:56.298Z,97475.56
2023-09-23T11:36:22.612Z,97470.22
2023-09-23T11:38:49.298Z,97469.03
2023-09-23T11:41:15.973Z,97472.00
2023-09-23T11:43:42.328Z,97472.44
2023-09-23T11:46:08.672Z,97469.31
2023-09-23T11:48:35.035Z,97467.75
2023-09-23T11:51:01.408Z,97463.81
2023-09-23T11:53:27.743Z,97463.81
2023-09-23T11:55:54.102Z,97465.16
2023-09-23T11:58:20.447Z,97462.84
2023-09-23T12:00:46.751Z,97460.81
2023-09-23T12:03:13.383Z,97471.56
2023-09-23T12:05:39.827Z,97470.88
2023-09-23T12:08:06.205Z,97461.56
2023-09-23T12:10:33.218Z,97468.72
2023-09-23T12:12:59.521Z,97467.31
2023-09-23T12:15:25.837Z,97461.34
2023-09-23T12:17:52.255Z,97463.72
2023-09-23T12:20:18.682Z,97463.28
2023-09-23T12:22:45.001Z,97466.41
2023-09-23T12:25:11.337Z,97466.34
2023-09-23T12:27:37.706Z,97463.78
2023-09-23T12:30:04.012Z,97470.00
2023-09-23T12:32:30.454Z,97471.63
2023-09-23T12:34:56.891Z,97472.50
2023-09-23T12:37:23.241Z,97473.91
2023-09-23T12:39:49.546Z,97468.13
2023-09-23T12:42:16.152Z,97462.97
2023-09-23T12:44:42.697Z,97458.44
2023-09-23T12:47:09.305Z,97461.94
2023-09-23T12:49:35.660Z,97465.00
2023-09-23T12:52:01.986Z,97463.66
2023-09-23T12:54:28.354Z,97462.63
2023-09-23T12:56:54.667Z,97465.31
2023-09-23T12:59:21.074Z,97467.16
2023-09-23T13:01:47.499Z,97462.44
2023-09-23T13:04:13.850Z,97473.63
2023-09-23T13:06:40.176Z,97463.50
2023-09-23T13:09:06.667Z,97470.19
2023-09-23T13:11:33.050Z,97465.44
2023-09-23T13:13:59.471Z,97463.78
2023-09-23T13:16:25.915Z,97472.22
2023-09-23T13:18:52.282Z,97469.16
2023-09-23T13:21:18.578Z,97468.41
2023-09-23T13:23:44.939Z,97479.56
2023-09-23T13:26:11.350Z,97475.41
2023-09-23T13:28:37.751Z,97479.75
2023-09-23T13:31:04.249Z,97476.78
2023-09-23T13:33:30.694Z,97471.09
2023-09-23T13:35:57.044Z,97480.66
2023-09-23T13:38:23.433Z,97476.31
2023-09-23T13:40:49.766Z,97473.63
2023-09-23T13:43:16.083Z,97480.19
2023-09-23T13:45:42.708Z,97481.84
2023-09-23T13:48:09.128Z,97485.53
2023-09-23T13:50:35.534Z,97484.22
2023-09-23T13:53:02.010Z,97487.63
2023-09-23T13:55:28.432Z,97492.16
2023-09-23T13:57:54.736Z,97498.44
2023-09-23T14:00:21.079Z,97497.31
2023-09-23T14:02:48.452Z,97496.41
2023-09-23T14:05:14.904Z,97501.50
2023-09-23T14:07:41.319Z,97499.69
2023-09-23T14:10:20.533Z,97497.91
2023-09-23T14:12:48.493Z,97503.38
2023-09-23T14:15:14.850Z,97507.72
2023-09-23T14:17:41.334Z,97501.03
2023-09-23T14:20:07.837Z,97497.91
2023-09-23T14:22:34.161Z,97500.13
2023-09-23T14:25:00.474Z,97503.50
2023-09-23T14:27:26.811Z,97504.84
2023-09-23T14:29:53.160Z,97507.28
2023-09-23T14:32:19.539Z,97498.34
2023-09-23T14:34:45.839Z,97507.78
2023-09-23T14:37:12.138Z,97508.47
2023-09-23T14:39:38.437Z,97507.91
2023-09-23T14:42:04.804Z,97509.97
2023-09-23T14:44:31.150Z,97507.13
2023-09-23T14:46:57.510Z,97516.22
2023-09-23T14:49:23.924Z,97517.06
2023-09-23T14:51:50.291Z,97522.31
2023-09-23T14:54:16.572Z,97518.97
2023-09-23T14:56:42.958Z,97518.03
2023-09-23T14:59:09.341Z,97517.28
2023-09-23T15:01:35.703Z,97516.38
2023-09-23T15:04:02.238Z,97520.66
2023-09-23T15:06:28.659Z,97523.38
2023-09-23T15:09:00.493Z,97529.19
2023-09-23T15:11:27.208Z,97532.00
2023-09-23T15:13:53.574Z,97536.66
2023-09-23T15:16:19.910Z,97546.00
2023-09-23T15:18:46.624Z,97548.13
2023-09-23T15:21:13.291Z,97547.06
2023-09-23T15:23:41.531Z,97554.13
2023-09-23T15:26:07.881Z,97558.97
2023-09-23T15:28:34.196Z,97554.91
2023-09-23T15:31:00.471Z,97560.03
2023-09-23T15:33:26.844Z,97565.47
2023-09-23T15:35:53.228Z,97562.97
2023-09-23T15:38:19.561Z,97561.16
2023-09-23T15:40:45.961Z,97564.44
2023-09-23T15:43:12.287Z,97574.59
2023-09-23T15:45:38.640Z,97580.56
2023-09-23T15:48:05.050Z,97569.31
2023-09-23T15:50:31.502Z,97580.94
2023-09-23T15:52:57.882Z,97586.06
2023-09-23T15:55:24.418Z,97582.84
2023-09-23T15:57:50.735Z,97588.47
2023-09-23T16:00:17.046Z,97588.41
2023-09-23T16:02:43.823Z,97589.88
2023-09-23T16:05:10.340Z,97586.91
2023-09-23T16:07:36.731Z,97591.38
2023-09-23T16:10:03.233Z,97606.44
2023-09-23T16:12:29.616Z,97600.09
2023-09-23T16:14:55.932Z,97600.81
2023-09-23T16:17:22.357Z,97606.00
2023-09-23T16:19:48.912Z,97593.47
2023-09-23T16:22:15.396Z,97599.75
2023-09-23T16:24:41.801Z,97602.28
2023-09-23T16:27:08.137Z,97600.00
2023-09-23T16:29:34.483Z,97598.94
2023-09-23T16:32:00.897Z,97603.22
2023-09-23T16:34:27.293Z,97611.66
2023-09-23T16:36:53.593Z,97614.34
2023-09-23T16:39:20.055Z,97620.94
2023-09-23T16:41:46.597Z,97617.75
2023-09-23T16:44:12.974Z,97621.91
2023-09-23T16:46:39.564Z,97621.50
2023-09-23T16:49:05.889Z,97619.72
2023-09-23T16:51:32.229Z,97621.22
2023-09-23T16:53:58.662Z,97631.88
2023-09-23T16:56:25.083Z,97638.50
2023-09-23T16:58:51.418Z,97636.09
2023-09-23T17:01:17.925Z,97638.16
2023-09-23T17:03:44.395Z,97641.31
2023-09-23T17:06:10.874Z,97649.38
2023-09-23T17:08:37.293Z,97649.94
2023-09-23T17:11:03.739Z,97650.13
2023-09-23T17:13:30.147Z,97662.66
2023-09-23T17:15:56.634Z,97661.56
2023-09-23T17:18:23.073Z,97669.44
2023-09-23T17:20:49.469Z,97669.03
2023-09-23T17:23:15.833Z,97665.56
2023-09-23T17:25:42.252Z,97671.19
2023-09-23T17:28:08.626Z,97673.47
2023-09-23T17:30:35.478Z,97680.25
2023-09-23T17:33:02.340Z,97676.44
2023-09-23T17:35:28.774Z,97678.22
2023-09-23T17:37:55.370Z,97684.47
2023-09-23T17:40:21.825Z,97687.97
2023-09-23T17:42:48.171Z,97690.25
2023-09-23T17:45:14.636Z,97690.88
2023-09-23T17:47:41.041Z,97692.38
2023-09-23T17:50:07.422Z,97696.59
2023-09-23T17:52:33.834Z,97701.47
2023-09-23T17:55:00.281Z,97701.03
2023-09-23T17:57:26.748Z,97713.88
2023-09-23T17:59:53.198Z,97713.72
2023-09-23T18:02:19.599Z,97720.94
2023-09-23T18:04:45.940Z,97721.66
2023-09-23T18:07:12.342Z,97724.97
2023-09-23T18:09:39.804Z,97732.63
2023-09-23T18:12:06.258Z,97735.03
2023-09-23T18:14:32.606Z,97734.00
2023-09-23T18:16:58.919Z,97741.19
2023-09-23T18:19:25.222Z,97746.72
2023-09-23T18:21:51.577Z,97751.94
2023-09-23T18:24:18.199Z,97754.03
2023-09-23T18:26:44.662Z,97764.91
2023-09-23T18:29:11.126Z,97755.31
2023-09-23T18:31:37.566Z,97758.50
2023-09-23T18:34:03.918Z,97765.94
2023-09-23T18:36:30.289Z,97766.00
2023-09-23T18:38:56.662Z,97758.34
2023-09-23T18:41:22.983Z,97771.94
2023-09-23T18:43:49.488Z,97769.91
2023-09-23T18:46:15.947Z,97780.84
2023-09-23T18:48:42.484Z,97775.16
2023-09-23T18:51:10.227Z,97785.41
2023-09-23T18:53:38.209Z,97790.69
2023-09-23T18:56:04.712Z,97789.06
2023-09-23T18:58:51.051Z,97794.59
2023-09-23T19:01:37.425Z,97800.47
2023-09-23T19:04:23.856Z,97801.84
2023-09-23T19:06:50.228Z,97808.91
2023-09-23T19:09:16.565Z,97813.03
2023-09-23T19:11:42.944Z,97813.88
2023-09-23T19:14:09.338Z,97815.44
2023-09-23T19:16:35.713Z,97821.63
2023-09-23T19:19:02.053Z,97818.09
2023-09-23T19:21:28.369Z,97823.69
2023-09-23T19:23:54.707Z,97825.50
2023-09-23T19:26:21.090Z,97827.50
2023-09-23T19:28:47.487Z,97827.03
2023-09-23T19:31:14.537Z,97829.88
2023-09-23T19:33:41.591Z,97829.47
2023-09-23T19:36:08.015Z,97820.44
2023-09-23T19:38:34.320Z,97833.78
2023-09-23T19:41:00.900Z,97827.75
2023-09-23T19:43:27.214Z,97832.75
2023-09-23T19:45:53.803Z,97835.22
2023-09-23T19:48:20.235Z,97838.06
2023-09-23T19:50:46.611Z,97837.03
2023-09-23T19:53:12.981Z,97841.50
2023-09-23T19:55:39.390Z,97839.16
2023-09-23T19:58:05.736Z,97844.31
2023-09-23T20:00:32.053Z,97843.25
2023-09-23T20:02:58.619Z,97842.00
2023-09-23T20:05:25.087Z,97848.63
2023-09-23T20:07:51.486Z,97844.28
2023-09-23T20:10:17.803Z,97848.78
2023-09-23T20:12:44.084Z,97852.50
2023-09-23T20:15:10.472Z,97852.00
2023-09-23T20:17:36.952Z,97858.72
2023-09-23T20:20:03.327Z,97854.19
2023-09-23T20:22:29.659Z,97859.34
2023-09-23T20:24:56.147Z,97859.09
2023-09-23T20:27:22.478Z,97866.94
2023-09-23T20:30:03.652Z,97862.00
2023-09-23T20:32:32.494Z,97872.59
2023-09-23T20:34:58.912Z,97884.84
2023-09-23T20:37:25.226Z,97874.97
2023-09-23T20:39:53.257Z,97877.63
2023-09-23T20:42:20.121Z,97874.34
2023-09-23T20:44:46.409Z,97874.78
2023-09-23T20:47:12.848Z,97884.22
2023-09-23T20:49:39.171Z,97887.56
2023-09-23T20:52:05.457Z,97887.97
2023-09-23T20:54:31.792Z,97897.25
2023-09-23T20:56:58.119Z,97895.72
2023-09-23T20:59:24.416Z,97896.63
2023-09-23T21:01:51.007Z,97893.38
2023-09-23T21:04:17.426Z,97894.81
2023-09-23T21:06:43.914Z,97900.81
2023-09-23T21:09:10.270Z,97900.97
2023-09-23T21:11:36.692Z,97903.25
2023-09-23T21:14:03.081Z,97898.28
2023-09-23T21:16:29.428Z,97900.88
2023-09-23T21:18:55.822Z,97903.16
2023-09-23T21:21:22.123Z,97905.00
2023-09-23T21:23:48.849Z,97903.84
2023-09-23T21:26:15.397Z,97905.28
2023-09-23T21:28:41.758Z,97911.91
2023-09-23T21:31:08.101Z,97909.00
2023-09-23T21:33:34.444Z,97908.59
2023-09-23T21:36:00.890Z,97911.91
2023-09-23T21:38:27.486Z,97912.59
2023-09-23T21:40:53.807Z,97912.91
2023-09-23T21:43:20.231Z,97908.91
2023-09-23T21:45:47.404Z,97908.19
2023-09-23T21:48:13.838Z,97905.94
2023-09-23T21:50:40.167Z,97904.88
2023-09-23T21:53:11.527Z,97903.03
2023-09-23T21:55:37.853Z,97906.72
2023-09-23T21:58:04.147Z,97902.78
2023-09-23T22:00:30.599Z,97911.75
2023-09-23T22:02:57.148Z,97899.16
2023-09-23T22:05:23.709Z,97891.25
2023-09-23T22:07:50.100Z,97900.34
2023-09-23T22:10:16.390Z,97895.25
2023-09-23T22:12:42.688Z,97909.22
2023-09-23T22:15:09.105Z,97910.19
2023-09-23T22:17:35.423Z,97897.84
2023-09-23T22:20:01.751Z,97909.81
2023-09-23T22:22:28.151Z,97909.66
2023-09-23T22:24:54.433Z,97910.47
2023-09-23T22:27:20.733Z,97910.66
2023-09-23T22:29:47.124Z,97915.00
2023-09-23T22:32:13.450Z,97909.84
2023-09-23T22:34:39.780Z,97908.63
2023-09-23T22:37:06.116Z,97916.63
2023-09-23T22:39:32.426Z,97911.44
2023-09-23T22:41:58.709Z,97913.50
2023-09-23T22:44:25.140Z,97909.44
2023-09-23T22:46:51.594Z,97908.19
2023-09-23T22:49:18.009Z,97911.53
2023-09-23T22:51:44.447Z,97911.50
2023-09-23T22:54:10.745Z,97908.81
2023-09-23T22:56:37.106Z,97912.13
2023-09-23T22:59:03.502Z,97912.75
2023-09-23T23:01:29.883Z,97906.97
2023-09-23T23:03:56.243Z,97906.50
2023-09-23T23:06:22.710Z,97903.72
2023-09-23T23:08:49.059Z,97899.50
2023-09-23T23:11:15.348Z,97905.31
2023-09-23T23:13:41.704Z,97906.56
2023-09-23T23:16:08.089Z,97903.06
2023-09-23T23:18:34.548Z,97902.84
2023-09-23T23:21:00.984Z,97902.25
2023-09-23T23:23:27.373Z,97902.44
2023-09-23T23:25:53.680Z,97898.69
2023-09-23T23:28:20.064Z,97899.81
2023-09-23T23:30:46.366Z,97896.78
2023-09-23T23:33:12.743Z,97896.06
2023-09-23T23:35:41.677Z,97895.66
2023-09-23T23:38:08.000Z,97899.16
2023-09-23T23:40:34.304Z,97897.72
2023-09-23T23:43:00.682Z,97894.59
2023-09-23T23:45:27.007Z,97899.16
2023-09-23T23:47:53.345Z,97893.34
2023-09-23T23:50:20.044Z,97898.19
2023-09-23T23:52:46.375Z,97905.72
2023-09-23T23:55:12.688Z,97898.31
2023-09-23T23:57:40.415Z,97902.06
